sensor_id;sensor_type;location;lat;lon;timestamp;pressure;altitude;pressure_sealevel;temperature;humidity
45763;BME280;37512;52.408;13.356;2023-07-08T00:01:00;101557.41;;;19.22;87.40
45763;BME280;37512;52.408;13.356;2023-07-08T00:05:04;101559.00;;;19.27;87.37
45763;BME280;37512;52.408;13.356;2023-07-08T00:09:10;101557.03;;;19.24;88.20
45763;BME280;37512;52.408;13.356;2023-07-08T00:13:13;101559.44;;;19.18;89.44
45763;BME280;37512;52.408;13.356;2023-07-08T00:17:14;101558.28;;;18.80;91.72
45763;BME280;37512;52.408;13.356;2023-07-08T00:21:17;101553.03;;;18.96;91.37
45763;BME280;37512;52.408;13.356;2023-07-08T00:25:19;101552.63;;;18.87;92.76
45763;BME280;37512;52.408;13.356;2023-07-08T00:29:20;101547.41;;;18.89;92.31
45763;BME280;37512;52.408;13.356;2023-07-08T00:33:22;101549.78;;;18.58;94.30
45763;BME280;37512;52.408;13.356;2023-07-08T00:37:23;101540.13;;;18.49;94.98
45763;BME280;37512;52.408;13.356;2023-07-08T00:41:37;101548.97;;;18.36;96.18
45763;BME280;37512;52.408;13.356;2023-07-08T00:45:46;101546.97;;;18.48;96.68
45763;BME280;37512;52.408;13.356;2023-07-08T00:50:03;101560.59;;;18.35;95.91
45763;BME280;37512;52.408;13.356;2023-07-08T00:54:15;101552.56;;;18.33;95.04
45763;BME280;37512;52.408;13.356;2023-07-08T00:58:19;101551.41;;;18.52;94.43
45763;BME280;37512;52.408;13.356;2023-07-08T01:02:25;101548.16;;;18.47;95.41
45763;BME280;37512;52.408;13.356;2023-07-08T01:06:30;101549.75;;;18.37;94.87
45763;BME280;37512;52.408;13.356;2023-07-08T01:10:44;101544.53;;;18.25;96.00
45763;BME280;37512;52.408;13.356;2023-07-08T01:14:48;101548.09;;;18.22;94.97
45763;BME280;37512;52.408;13.356;2023-07-08T01:18:50;101546.06;;;18.01;97.96
45763;BME280;37512;52.408;13.356;2023-07-08T01:22:54;101542.78;;;17.88;100.00
45763;BME280;37512;52.408;13.356;2023-07-08T01:26:56;101538.03;;;17.95;98.62
45763;BME280;37512;52.408;13.356;2023-07-08T01:31:02;101533.47;;;17.76;100.00
45763;BME280;37512;52.408;13.356;2023-07-08T01:35:09;101528.81;;;18.06;98.45
45763;BME280;37512;52.408;13.356;2023-07-08T01:39:15;101534.41;;;17.95;99.52
45763;BME280;37512;52.408;13.356;2023-07-08T01:43:18;101531.06;;;17.71;100.00
45763;BME280;37512;52.408;13.356;2023-07-08T01:47:22;101526.56;;;17.56;100.00
45763;BME280;37512;52.408;13.356;2023-07-08T01:51:25;101525.53;;;17.86;98.45
45763;BME280;37512;52.408;13.356;2023-07-08T01:55:28;101512.31;;;17.86;95.93
45763;BME280;37512;52.408;13.356;2023-07-08T01:59:30;101519.41;;;17.69;97.90
45763;BME280;37512;52.408;13.356;2023-07-08T02:03:32;101517.91;;;17.83;96.36
45763;BME280;37512;52.408;13.356;2023-07-08T02:07:33;101523.53;;;17.83;94.90
45763;BME280;37512;52.408;13.356;2023-07-08T02:11:35;101526.25;;;17.68;97.31
45763;BME280;37512;52.408;13.356;2023-07-08T02:15:36;101525.00;;;17.62;96.20
45763;BME280;37512;52.408;13.356;2023-07-08T02:19:38;101513.31;;;17.46;98.66
45763;BME280;37512;52.408;13.356;2023-07-08T02:23:39;101516.94;;;17.50;98.55
45763;BME280;37512;52.408;13.356;2023-07-08T02:27:42;101515.63;;;17.33;100.00
45763;BME280;37512;52.408;13.356;2023-07-08T02:31:43;101518.66;;;17.03;100.00
45763;BME280;37512;52.408;13.356;2023-07-08T02:35:45;101523.59;;;17.20;100.00
45763;BME280;37512;52.408;13.356;2023-07-08T02:39:47;101518.44;;;17.29;100.00
45763;BME280;37512;52.408;13.356;2023-07-08T02:43:48;101516.06;;;17.35;100.00
45763;BME280;37512;52.408;13.356;2023-07-08T02:47:50;101517.66;;;16.77;100.00
45763;BME280;37512;52.408;13.356;2023-07-08T02:51:51;101514.59;;;16.97;100.00
45763;BME280;37512;52.408;13.356;2023-07-08T02:55:53;101518.50;;;16.81;100.00
45763;BME280;37512;52.408;13.356;2023-07-08T02:59:54;101511.41;;;16.95;100.00
45763;BME280;37512;52.408;13.356;2023-07-08T03:03:56;101516.78;;;17.21;100.00
45763;BME280;37512;52.408;13.356;2023-07-08T03:07:58;101504.22;;;16.97;100.00
45763;BME280;37512;52.408;13.356;2023-07-08T03:12:00;101507.78;;;16.94;100.00
45763;BME280;37512;52.408;13.356;2023-07-08T03:16:02;101501.34;;;16.90;100.00
45763;BME280;37512;52.408;13.356;2023-07-08T03:20:04;101503.53;;;16.63;100.00
45763;BME280;37512;52.408;13.356;2023-07-08T03:24:10;101494.34;;;16.66;100.00
45763;BME280;37512;52.408;13.356;2023-07-08T03:28:15;101500.19;;;16.95;100.00
45763;BME280;37512;52.408;13.356;2023-07-08T03:32:16;101491.00;;;16.98;100.00
45763;BME280;37512;52.408;13.356;2023-07-08T03:36:18;101496.25;;;17.10;100.00
45763;BME280;37512;52.408;13.356;2023-07-08T03:40:29;101497.06;;;17.07;100.00
45763;BME280;37512;52.408;13.356;2023-07-08T03:44:34;101493.03;;;17.04;100.00
45763;BME280;37512;52.408;13.356;2023-07-08T03:48:36;101502.41;;;16.75;100.00
45763;BME280;37512;52.408;13.356;2023-07-08T03:52:37;101497.94;;;17.18;100.00
45763;BME280;37512;52.408;13.356;2023-07-08T03:56:39;101499.97;;;17.25;100.00
45763;BME280;37512;52.408;13.356;2023-07-08T04:00:41;101501.25;;;17.38;100.00
45763;BME280;37512;52.408;13.356;2023-07-08T04:04:42;101511.38;;;16.91;100.00
45763;BME280;37512;52.408;13.356;2023-07-08T04:08:44;101511.56;;;17.20;100.00
45763;BME280;37512;52.408;13.356;2023-07-08T04:12:46;101502.25;;;17.05;100.00
45763;BME280;37512;52.408;13.356;2023-07-08T04:16:53;101510.19;;;16.96;100.00
45763;BME280;37512;52.408;13.356;2023-07-08T04:20:58;101510.16;;;16.88;100.00
45763;BME280;37512;52.408;13.356;2023-07-08T04:25:03;101510.25;;;17.03;100.00
45763;BME280;37512;52.408;13.356;2023-07-08T04:29:31;101511.13;;;17.14;100.00
45763;BME280;37512;52.408;13.356;2023-07-08T04:33:33;101507.59;;;17.24;100.00
45763;BME280;37512;52.408;13.356;2023-07-08T04:37:34;101507.22;;;17.33;100.00
45763;BME280;37512;52.408;13.356;2023-07-08T04:41:37;101511.78;;;17.59;100.00
45763;BME280;37512;52.408;13.356;2023-07-08T04:45:44;101514.59;;;17.59;100.00
45763;BME280;37512;52.408;13.356;2023-07-08T04:49:46;101515.06;;;17.79;100.00
45763;BME280;37512;52.408;13.356;2023-07-08T04:53:48;101519.97;;;18.04;100.00
45763;BME280;37512;52.408;13.356;2023-07-08T04:57:50;101520.78;;;18.01;100.00
45763;BME280;37512;52.408;13.356;2023-07-08T05:01:52;101511.19;;;18.23;99.25
45763;BME280;37512;52.408;13.356;2023-07-08T05:05:54;101509.59;;;18.47;95.86
45763;BME280;37512;52.408;13.356;2023-07-08T05:09:55;101515.66;;;18.71;93.92
45763;BME280;37512;52.408;13.356;2023-07-08T05:13:57;101516.84;;;18.73;92.91
45763;BME280;37512;52.408;13.356;2023-07-08T05:17:59;101513.66;;;18.89;91.39
45763;BME280;37512;52.408;13.356;2023-07-08T05:22:01;101518.06;;;19.05;90.50
45763;BME280;37512;52.408;13.356;2023-07-08T05:26:03;101523.28;;;19.20;89.58
45763;BME280;37512;52.408;13.356;2023-07-08T05:30:06;101524.44;;;19.27;89.44
45763;BME280;37512;52.408;13.356;2023-07-08T05:34:09;101526.47;;;19.30;89.27
45763;BME280;37512;52.408;13.356;2023-07-08T05:38:10;101514.72;;;19.60;89.17
45763;BME280;37512;52.408;13.356;2023-07-08T05:42:12;101514.28;;;19.72;88.25
45763;BME280;37512;52.408;13.356;2023-07-08T05:46:14;101517.84;;;19.87;86.65
45763;BME280;37512;52.408;13.356;2023-07-08T05:50:15;101519.72;;;20.08;84.55
45763;BME280;37512;52.408;13.356;2023-07-08T05:54:17;101523.25;;;20.26;83.53
45763;BME280;37512;52.408;13.356;2023-07-08T05:58:18;101521.88;;;20.49;82.90
45763;BME280;37512;52.408;13.356;2023-07-08T06:02:26;101522.22;;;20.62;82.88
45763;BME280;37512;52.408;13.356;2023-07-08T06:06:31;101540.13;;;20.86;79.77
45763;BME280;37512;52.408;13.356;2023-07-08T06:10:33;101538.25;;;21.14;79.88
45763;BME280;37512;52.408;13.356;2023-07-08T06:14:34;101541.47;;;21.16;78.88
45763;BME280;37512;52.408;13.356;2023-07-08T06:18:36;101537.66;;;21.33;76.51
45763;BME280;37512;52.408;13.356;2023-07-08T06:22:37;101539.41;;;21.61;75.60
45763;BME280;37512;52.408;13.356;2023-07-08T06:26:47;101538.50;;;21.68;73.47
45763;BME280;37512;52.408;13.356;2023-07-08T06:30:52;101546.09;;;22.05;71.74
45763;BME280;37512;52.408;13.356;2023-07-08T06:34:54;101542.81;;;22.10;70.44
45763;BME280;37512;52.408;13.356;2023-07-08T06:38:55;101536.19;;;22.24;72.68
45763;BME280;37512;52.408;13.356;2023-07-08T06:42:57;101540.66;;;22.49;71.73
45763;BME280;37512;52.408;13.356;2023-07-08T06:46:58;101531.72;;;22.50;67.77
45763;BME280;37512;52.408;13.356;2023-07-08T06:50:59;101533.78;;;22.73;66.13
45763;BME280;37512;52.408;13.356;2023-07-08T06:55:03;101544.97;;;22.81;63.92
45763;BME280;37512;52.408;13.356;2023-07-08T06:59:07;101537.75;;;23.03;65.85
45763;BME280;37512;52.408;13.356;2023-07-08T07:03:11;101528.06;;;23.24;66.30
45763;BME280;37512;52.408;13.356;2023-07-08T07:07:13;101525.09;;;23.51;63.04
45763;BME280;37512;52.408;13.356;2023-07-08T07:11:15;101533.00;;;23.60;63.82
45763;BME280;37512;52.408;13.356;2023-07-08T07:15:16;101534.75;;;23.74;63.81
45763;BME280;37512;52.408;13.356;2023-07-08T07:19:18;101540.88;;;23.92;59.62
45763;BME280;37512;52.408;13.356;2023-07-08T07:23:20;101540.53;;;23.90;59.82
45763;BME280;37512;52.408;13.356;2023-07-08T07:27:22;101538.56;;;24.24;58.52
45763;BME280;37512;52.408;13.356;2023-07-08T07:31:23;101534.69;;;24.34;54.92
45763;BME280;37512;52.408;13.356;2023-07-08T07:35:25;101529.41;;;24.52;54.57
45763;BME280;37512;52.408;13.356;2023-07-08T07:39:27;101524.19;;;24.51;52.51
45763;BME280;37512;52.408;13.356;2023-07-08T07:43:29;101520.34;;;24.74;53.26
45763;BME280;37512;52.408;13.356;2023-07-08T07:47:31;101534.09;;;24.92;53.94
45763;BME280;37512;52.408;13.356;2023-07-08T07:51:36;101529.81;;;25.16;54.32
45763;BME280;37512;52.408;13.356;2023-07-08T07:55:37;101528.59;;;25.46;53.58
45763;BME280;37512;52.408;13.356;2023-07-08T07:59:39;101525.03;;;25.42;52.40
45763;BME280;37512;52.408;13.356;2023-07-08T08:03:43;101527.41;;;25.73;53.40
45763;BME280;37512;52.408;13.356;2023-07-08T08:07:44;101530.13;;;25.77;52.43
45763;BME280;37512;52.408;13.356;2023-07-08T08:11:46;101537.94;;;25.60;50.64
45763;BME280;37512;52.408;13.356;2023-07-08T08:15:48;101531.69;;;25.94;49.33
45763;BME280;37512;52.408;13.356;2023-07-08T08:19:49;101533.41;;;26.04;50.08
45763;BME280;37512;52.408;13.356;2023-07-08T08:23:50;101537.06;;;26.18;46.33
45763;BME280;37512;52.408;13.356;2023-07-08T08:27:52;101533.88;;;26.16;48.87
45763;BME280;37512;52.408;13.356;2023-07-08T08:31:54;101532.75;;;26.26;48.44
45763;BME280;37512;52.408;13.356;2023-07-08T08:35:55;101536.50;;;26.36;46.82
45763;BME280;37512;52.408;13.356;2023-07-08T08:39:57;101539.81;;;26.60;43.70
45763;BME280;37512;52.408;13.356;2023-07-08T08:44:00;101539.09;;;26.68;45.71
45763;BME280;37512;52.408;13.356;2023-07-08T08:48:05;101542.63;;;26.85;46.34
45763;BME280;37512;52.408;13.356;2023-07-08T08:52:08;101538.28;;;27.28;45.05
45763;BME280;37512;52.408;13.356;2023-07-08T08:56:23;101541.69;;;27.36;40.52
45763;BME280;37512;52.408;13.356;2023-07-08T09:00:34;101540.69;;;27.74;43.65
45763;BME280;37512;52.408;13.356;2023-07-08T09:04:38;101546.38;;;27.96;37.62
45763;BME280;37512;52.408;13.356;2023-07-08T09:08:42;101537.75;;;28.09;35.91
45763;BME280;37512;52.408;13.356;2023-07-08T09:12:44;101548.28;;;27.90;35.15
45763;BME280;37512;52.408;13.356;2023-07-08T09:16:55;101536.75;;;28.34;37.54
45763;BME280;37512;52.408;13.356;2023-07-08T09:21:03;101534.66;;;28.66;33.71
45763;BME280;37512;52.408;13.356;2023-07-08T09:29:21;101529.28;;;28.77;35.52
45763;BME280;37512;52.408;13.356;2023-07-08T09:33:24;101530.50;;;28.67;34.32
45763;BME280;37512;52.408;13.356;2023-07-08T09:41:34;101535.59;;;28.63;33.40
45763;BME280;37512;52.408;13.356;2023-07-08T09:45:45;101524.53;;;28.83;32.38
45763;BME280;37512;52.408;13.356;2023-07-08T09:49:48;101518.88;;;29.29;33.80
45763;BME280;37512;52.408;13.356;2023-07-08T09:53:49;101523.75;;;29.66;32.77
45763;BME280;37512;52.408;13.356;2023-07-08T09:57:53;101523.28;;;29.03;31.66
45763;BME280;37512;52.408;13.356;2023-07-08T10:01:55;101525.53;;;29.45;32.90
45763;BME280;37512;52.408;13.356;2023-07-08T10:05:58;101517.56;;;29.86;31.51
45763;BME280;37512;52.408;13.356;2023-07-08T10:10:08;101515.34;;;30.23;30.66
45763;BME280;37512;52.408;13.356;2023-07-08T10:14:24;101517.00;;;30.48;30.41
45763;BME280;37512;52.408;13.356;2023-07-08T10:18:29;101522.44;;;30.70;30.37
45763;BME280;37512;52.408;13.356;2023-07-08T10:27:47;101515.94;;;30.60;31.38
45763;BME280;37512;52.408;13.356;2023-07-08T10:31:48;101519.47;;;30.89;31.45
45763;BME280;37512;52.408;13.356;2023-07-08T10:35:58;101520.25;;;31.28;28.82
45763;BME280;37512;52.408;13.356;2023-07-08T10:44:26;101512.03;;;31.21;29.05
45763;BME280;37512;52.408;13.356;2023-07-08T10:53:07;101509.25;;;31.12;27.88
45763;BME280;37512;52.408;13.356;2023-07-08T10:57:46;101511.34;;;31.50;29.11
45763;BME280;37512;52.408;13.356;2023-07-08T11:07:00;101509.56;;;31.53;28.92
45763;BME280;37512;52.408;13.356;2023-07-08T11:20:02;101498.34;;;32.14;28.11
45763;BME280;37512;52.408;13.356;2023-07-08T11:28:46;101493.50;;;32.56;26.19
45763;BME280;37512;52.408;13.356;2023-07-08T11:32:57;101484.88;;;32.97;28.25
45763;BME280;37512;52.408;13.356;2023-07-08T11:37:00;101479.69;;;33.21;28.05
45763;BME280;37512;52.408;13.356;2023-07-08T11:41:15;101469.16;;;32.71;26.49
45763;BME280;37512;52.408;13.356;2023-07-08T11:49:19;101468.72;;;33.25;26.36
45763;BME280;37512;52.408;13.356;2023-07-08T11:57:38;101462.47;;;33.27;28.00
45763;BME280;37512;52.408;13.356;2023-07-08T12:01:52;101458.50;;;34.08;26.68
45763;BME280;37512;52.408;13.356;2023-07-08T12:05:56;101451.03;;;34.76;24.88
45763;BME280;37512;52.408;13.356;2023-07-08T12:10:04;101449.75;;;33.33;25.62
45763;BME280;37512;52.408;13.356;2023-07-08T12:14:06;101455.63;;;32.37;25.64
45763;BME280;37512;52.408;13.356;2023-07-08T12:18:13;101449.22;;;32.88;26.59
45763;BME280;37512;52.408;13.356;2023-07-08T12:22:17;101463.84;;;32.85;25.53
45763;BME280;37512;52.408;13.356;2023-07-08T12:26:21;101446.22;;;33.50;26.00
45763;BME280;37512;52.408;13.356;2023-07-08T12:30:28;101439.34;;;33.16;25.02
45763;BME280;37512;52.408;13.356;2023-07-08T12:34:31;101443.97;;;32.25;25.67
45763;BME280;37512;52.408;13.356;2023-07-08T12:38:38;101440.94;;;32.14;26.67
45763;BME280;37512;52.408;13.356;2023-07-08T12:42:41;101429.97;;;32.33;26.17
45763;BME280;37512;52.408;13.356;2023-07-08T12:46:42;101421.81;;;33.13;24.51
45763;BME280;37512;52.408;13.356;2023-07-08T12:50:44;101437.66;;;33.03;25.65
45763;BME280;37512;52.408;13.356;2023-07-08T12:54:46;101428.75;;;32.81;24.89
45763;BME280;37512;52.408;13.356;2023-07-08T12:58:54;101426.97;;;33.93;25.41
45763;BME280;37512;52.408;13.356;2023-07-08T13:03:08;101420.22;;;34.40;25.39
45763;BME280;37512;52.408;13.356;2023-07-08T13:07:25;101416.13;;;33.77;24.61
45763;BME280;37512;52.408;13.356;2023-07-08T13:11:31;101419.06;;;34.20;24.79
45763;BME280;37512;52.408;13.356;2023-07-08T13:15:39;101421.75;;;34.95;24.62
45763;BME280;37512;52.408;13.356;2023-07-08T13:19:42;101408.97;;;35.18;23.45
45763;BME280;37512;52.408;13.356;2023-07-08T13:23:45;101412.53;;;34.25;25.03
45763;BME280;37512;52.408;13.356;2023-07-08T13:27:55;101407.75;;;34.11;24.09
45763;BME280;37512;52.408;13.356;2023-07-08T13:32:03;101413.19;;;34.52;24.39
45763;BME280;37512;52.408;13.356;2023-07-08T13:36:06;101408.44;;;33.63;24.68
45763;BME280;37512;52.408;13.356;2023-07-08T13:40:08;101394.78;;;34.38;24.47
45763;BME280;37512;52.408;13.356;2023-07-08T13:44:11;101396.59;;;33.92;24.89
45763;BME280;37512;52.408;13.356;2023-07-08T13:48:18;101397.47;;;34.53;23.50
45763;BME280;37512;52.408;13.356;2023-07-08T13:52:22;101392.31;;;34.68;22.62
45763;BME280;37512;52.408;13.356;2023-07-08T14:00:31;101396.28;;;34.22;22.88
45763;BME280;37512;52.408;13.356;2023-07-08T14:04:35;101403.72;;;34.46;22.61
45763;BME280;37512;52.408;13.356;2023-07-08T14:08:39;101398.50;;;35.38;22.39
45763;BME280;37512;52.408;13.356;2023-07-08T14:12:41;101392.06;;;34.72;23.62
45763;BME280;37512;52.408;13.356;2023-07-08T14:16:45;101397.97;;;35.79;22.50
45763;BME280;37512;52.408;13.356;2023-07-08T14:20:48;101393.34;;;36.40;22.12
45763;BME280;37512;52.408;13.356;2023-07-08T14:24:49;101384.41;;;36.43;23.18
45763;BME280;37512;52.408;13.356;2023-07-08T14:28:51;101385.34;;;35.59;22.53
45763;BME280;37512;52.408;13.356;2023-07-08T14:32:52;101383.22;;;35.99;22.52
45763;BME280;37512;52.408;13.356;2023-07-08T14:36:54;101381.94;;;35.78;22.26
45763;BME280;37512;52.408;13.356;2023-07-08T14:40:56;101375.91;;;35.36;22.86
45763;BME280;37512;52.408;13.356;2023-07-08T14:45:00;101376.50;;;36.50;22.27
45763;BME280;37512;52.408;13.356;2023-07-08T14:49:11;101374.69;;;36.35;22.86
45763;BME280;37512;52.408;13.356;2023-07-08T14:53:16;101368.56;;;35.47;22.25
45763;BME280;37512;52.408;13.356;2023-07-08T14:57:25;101368.44;;;36.31;21.79
45763;BME280;37512;52.408;13.356;2023-07-08T15:01:27;101368.41;;;36.90;20.74
45763;BME280;37512;52.408;13.356;2023-07-08T15:05:31;101363.91;;;37.60;20.44
45763;BME280;37512;52.408;13.356;2023-07-08T15:09:35;101366.69;;;35.04;22.31
45763;BME280;37512;52.408;13.356;2023-07-08T15:13:37;101365.59;;;36.09;21.63
45763;BME280;37512;52.408;13.356;2023-07-08T15:17:39;101363.00;;;35.99;21.68
45763;BME280;37512;52.408;13.356;2023-07-08T15:21:41;101365.97;;;36.47;20.78
45763;BME280;37512;52.408;13.356;2023-07-08T15:25:45;101353.84;;;34.88;22.51
45763;BME280;37512;52.408;13.356;2023-07-08T15:29:47;101352.78;;;34.86;22.56
45763;BME280;37512;52.408;13.356;2023-07-08T15:33:49;101354.69;;;35.45;20.79
45763;BME280;37512;52.408;13.356;2023-07-08T15:37:50;101354.75;;;36.84;20.82
45763;BME280;37512;52.408;13.356;2023-07-08T15:41:52;101355.34;;;36.25;20.46
45763;BME280;37512;52.408;13.356;2023-07-08T15:45:54;101346.00;;;36.54;21.37
45763;BME280;37512;52.408;13.356;2023-07-08T15:49:55;101347.84;;;35.26;21.05
45763;BME280;37512;52.408;13.356;2023-07-08T15:53:57;101346.72;;;35.96;21.07
45763;BME280;37512;52.408;13.356;2023-07-08T15:58:05;101345.91;;;34.06;22.47
45763;BME280;37512;52.408;13.356;2023-07-08T16:02:27;101343.75;;;34.50;22.60
45763;BME280;37512;52.408;13.356;2023-07-08T16:06:30;101351.47;;;34.87;22.04
45763;BME280;37512;52.408;13.356;2023-07-08T16:10:32;101344.44;;;35.44;22.82
45763;BME280;37512;52.408;13.356;2023-07-08T16:14:34;101342.66;;;34.42;22.45
45763;BME280;37512;52.408;13.356;2023-07-08T16:18:35;101350.47;;;35.12;22.54
45763;BME280;37512;52.408;13.356;2023-07-08T16:22:37;101345.75;;;35.54;22.57
45763;BME280;37512;52.408;13.356;2023-07-08T16:26:39;101346.13;;;34.51;23.42
45763;BME280;37512;52.408;13.356;2023-07-08T16:30:41;101349.44;;;34.27;23.22
45763;BME280;37512;52.408;13.356;2023-07-08T16:34:43;101343.41;;;35.47;22.72
45763;BME280;37512;52.408;13.356;2023-07-08T16:38:45;101343.88;;;35.74;22.54
45763;BME280;37512;52.408;13.356;2023-07-08T16:42:48;101337.63;;;33.39;23.89
45763;BME280;37512;52.408;13.356;2023-07-08T16:46:50;101342.06;;;35.26;22.77
45763;BME280;37512;52.408;13.356;2023-07-08T16:50:52;101346.00;;;35.06;24.21
45763;BME280;37512;52.408;13.356;2023-07-08T16:54:54;101349.75;;;36.85;22.67
45763;BME280;37512;52.408;13.356;2023-07-08T16:58:56;101342.53;;;35.97;23.40
45763;BME280;37512;52.408;13.356;2023-07-08T17:02:58;101348.06;;;36.54;23.78
45763;BME280;37512;52.408;13.356;2023-07-08T17:07:00;101349.94;;;35.53;23.23
45763;BME280;37512;52.408;13.356;2023-07-08T17:11:01;101349.13;;;35.02;23.79
45763;BME280;37512;52.408;13.356;2023-07-08T17:15:04;101337.94;;;34.33;23.26
45763;BME280;37512;52.408;13.356;2023-07-08T17:19:06;101342.03;;;34.92;22.86
45763;BME280;37512;52.408;13.356;2023-07-08T17:27:11;101333.53;;;34.49;24.96
45763;BME280;37512;52.408;13.356;2023-07-08T17:31:17;101334.19;;;35.09;24.01
45763;BME280;37512;52.408;13.356;2023-07-08T17:35:31;101325.41;;;34.47;24.96
45763;BME280;37512;52.408;13.356;2023-07-08T17:39:32;101331.97;;;34.59;25.68
45763;BME280;37512;52.408;13.356;2023-07-08T17:43:34;101329.41;;;33.64;27.00
45763;BME280;37512;52.408;13.356;2023-07-08T17:47:35;101329.34;;;32.68;29.76
45763;BME280;37512;52.408;13.356;2023-07-08T17:51:37;101327.88;;;32.32;30.67
45763;BME280;37512;52.408;13.356;2023-07-08T17:55:40;101334.28;;;31.51;28.49
45763;BME280;37512;52.408;13.356;2023-07-08T17:59:42;101319.09;;;31.65;29.75
45763;BME280;37512;52.408;13.356;2023-07-08T18:03:43;101321.72;;;31.03;31.06
45763;BME280;37512;52.408;13.356;2023-07-08T18:07:46;101319.47;;;30.39;29.86
45763;BME280;37512;52.408;13.356;2023-07-08T18:11:48;101322.59;;;29.17;32.34
45763;BME280;37512;52.408;13.356;2023-07-08T18:15:50;101327.38;;;29.20;33.09
45763;BME280;37512;52.408;13.356;2023-07-08T18:19:51;101317.44;;;28.78;33.72
45763;BME280;37512;52.408;13.356;2023-07-08T18:23:54;101319.47;;;28.96;34.40
45763;BME280;37512;52.408;13.356;2023-07-08T18:27:59;101322.88;;;28.58;31.66
45763;BME280;37512;52.408;13.356;2023-07-08T18:32:00;101328.25;;;28.56;33.71
45763;BME280;37512;52.408;13.356;2023-07-08T18:36:02;101317.75;;;28.25;34.85
45763;BME280;37512;52.408;13.356;2023-07-08T18:40:10;101316.28;;;28.02;34.67
45763;BME280;37512;52.408;13.356;2023-07-08T18:44:16;101330.22;;;27.60;34.77
45763;BME280;37512;52.408;13.356;2023-07-08T18:48:22;101330.00;;;27.76;35.33
45763;BME280;37512;52.408;13.356;2023-07-08T18:52:24;101321.50;;;27.94;35.42
45763;BME280;37512;52.408;13.356;2023-07-08T18:56:25;101327.66;;;27.84;34.85
45763;BME280;37512;52.408;13.356;2023-07-08T19:00:27;101328.63;;;27.90;35.81
45763;BME280;37512;52.408;13.356;2023-07-08T19:04:29;101339.00;;;27.74;35.38
45763;BME280;37512;52.408;13.356;2023-07-08T19:08:30;101336.84;;;27.47;36.87
45763;BME280;37512;52.408;13.356;2023-07-08T19:12:34;101340.06;;;27.27;37.73
45763;BME280;37512;52.408;13.356;2023-07-08T19:16:36;101350.72;;;27.14;37.55
45763;BME280;37512;52.408;13.356;2023-07-08T19:20:40;101354.69;;;26.50;39.51
45763;BME280;37512;52.408;13.356;2023-07-08T19:24:42;101372.28;;;26.11;41.84
45763;BME280;37512;52.408;13.356;2023-07-08T19:28:44;101378.22;;;25.52;41.65
45763;BME280;37512;52.408;13.356;2023-07-08T19:32:55;101382.88;;;25.59;42.98
45763;BME280;37512;52.408;13.356;2023-07-08T19:36:57;101386.84;;;25.49;43.85
45763;BME280;37512;52.408;13.356;2023-07-08T19:40:59;101391.63;;;25.52;43.93
45763;BME280;37512;52.408;13.356;2023-07-08T19:45:01;101399.47;;;25.60;45.76
45763;BME280;37512;52.408;13.356;2023-07-08T19:49:02;101404.22;;;25.09;46.29
45763;BME280;37512;52.408;13.356;2023-07-08T19:53:04;101406.84;;;25.32;46.22
45763;BME280;37512;52.408;13.356;2023-07-08T19:57:12;101411.25;;;25.20;46.99
45763;BME280;37512;52.408;13.356;2023-07-08T20:01:14;101421.13;;;24.99;48.12
45763;BME280;37512;52.408;13.356;2023-07-08T20:05:17;101427.72;;;25.25;47.39
45763;BME280;37512;52.408;13.356;2023-07-08T20:09:19;101435.84;;;24.32;50.05
45763;BME280;37512;52.408;13.356;2023-07-08T20:13:26;101436.94;;;24.55;50.47
45763;BME280;37512;52.408;13.356;2023-07-08T20:17:28;101433.00;;;24.65;50.80
45763;BME280;37512;52.408;13.356;2023-07-08T20:21:30;101440.53;;;24.39;51.56
45763;BME280;37512;52.408;13.356;2023-07-08T20:25:32;101447.91;;;24.69;49.62
45763;BME280;37512;52.408;13.356;2023-07-08T20:29:36;101445.88;;;24.53;50.92
45763;BME280;37512;52.408;13.356;2023-07-08T20:33:38;101451.97;;;24.03;51.90
45763;BME280;37512;52.408;13.356;2023-07-08T20:37:40;101462.88;;;24.04;51.04
45763;BME280;37512;52.408;13.356;2023-07-08T20:41:42;101466.31;;;23.95;51.08
45763;BME280;37512;52.408;13.356;2023-07-08T20:45:46;101470.34;;;23.94;52.10
45763;BME280;37512;52.408;13.356;2023-07-08T20:49:49;101475.63;;;23.76;52.11
45763;BME280;37512;52.408;13.356;2023-07-08T20:53:54;101473.59;;;23.56;53.02
45763;BME280;37512;52.408;13.356;2023-07-08T20:57:56;101472.09;;;23.32;52.30
45763;BME280;37512;52.408;13.356;2023-07-08T21:01:57;101475.03;;;23.65;50.56
45763;BME280;37512;52.408;13.356;2023-07-08T21:05:59;101483.25;;;23.39;53.00
45763;BME280;37512;52.408;13.356;2023-07-08T21:10:02;101488.34;;;23.28;50.95
45763;BME280;37512;52.408;13.356;2023-07-08T21:14:03;101490.03;;;23.45;50.79
45763;BME280;37512;52.408;13.356;2023-07-08T21:18:11;101485.94;;;23.06;51.79
45763;BME280;37512;52.408;13.356;2023-07-08T21:22:13;101494.84;;;23.05;53.63
45763;BME280;37512;52.408;13.356;2023-07-08T21:26:21;101491.31;;;23.21;51.61
45763;BME280;37512;52.408;13.356;2023-07-08T21:30:25;101485.69;;;22.73;53.83
45763;BME280;37512;52.408;13.356;2023-07-08T21:34:26;101483.53;;;22.58;54.01
45763;BME280;37512;52.408;13.356;2023-07-08T21:38:28;101487.75;;;22.46;54.76
45763;BME280;37512;52.408;13.356;2023-07-08T21:42:29;101487.28;;;22.74;55.35
45763;BME280;37512;52.408;13.356;2023-07-08T21:46:31;101480.38;;;22.28;57.51
45763;BME280;37512;52.408;13.356;2023-07-08T21:54:42;101489.13;;;22.38;57.94